sensor_id;sensor_type;location;lat;lon;timestamp;P1;durP1;ratioP1;P2;durP2;ratioP2
80983;SDS011;73733;53.046;8.724;2024-01-11T00:00:56;8.90;;;5.50;;
80983;SDS011;73733;53.046;8.724;2024-01-11T00:03:24;9.88;;;6.28;;
80983;SDS011;73733;53.046;8.724;2024-01-11T00:05:49;10.98;;;6.03;;
80983;SDS011;73733;53.046;8.724;2024-01-11T00:08:14;9.37;;;5.40;;
80983;SDS011;73733;53.046;8.724;2024-01-11T00:10:40;9.57;;;5.87;;
80983;SDS011;73733;53.046;8.724;2024-01-11T00:13:05;11.13;;;6.17;;
80983;SDS011;73733;53.046;8.724;2024-01-11T00:15:31;10.85;;;5.70;;
80983;SDS011;73733;53.046;8.724;2024-01-11T00:17:56;11.83;;;6.57;;
80983;SDS011;73733;53.046;8.724;2024-01-11T00:20:21;11.47;;;6.67;;
80983;SDS011;73733;53.046;8.724;2024-01-11T00:22:47;10.03;;;6.27;;
80983;SDS011;73733;53.046;8.724;2024-01-11T00:25:12;12.90;;;6.30;;
80983;SDS011;73733;53.046;8.724;2024-01-11T00:27:37;11.10;;;6.20;;
80983;SDS011;73733;53.046;8.724;2024-01-11T00:30:03;8.75;;;6.18;;
80983;SDS011;73733;53.046;8.724;2024-01-11T00:32:29;9.10;;;5.88;;
80983;SDS011;73733;53.046;8.724;2024-01-11T00:34:54;12.03;;;6.70;;
80983;SDS011;73733;53.046;8.724;2024-01-11T00:37:19;12.03;;;6.70;;
80983;SDS011;73733;53.046;8.724;2024-01-11T00:39:45;11.57;;;7.20;;
80983;SDS011;73733;53.046;8.724;2024-01-11T00:42:10;11.17;;;6.53;;
80983;SDS011;73733;53.046;8.724;2024-01-11T00:44:35;10.37;;;6.20;;
80983;SDS011;73733;53.046;8.724;2024-01-11T00:47:00;10.87;;;5.93;;
80983;SDS011;73733;53.046;8.724;2024-01-11T00:49:26;12.83;;;6.87;;
80983;SDS011;73733;53.046;8.724;2024-01-11T00:51:51;11.80;;;6.73;;
80983;SDS011;73733;53.046;8.724;2024-01-11T00:54:16;12.03;;;6.50;;
80983;SDS011;73733;53.046;8.724;2024-01-11T00:56:42;14.23;;;8.02;;
80983;SDS011;73733;53.046;8.724;2024-01-11T00:59:07;11.17;;;6.80;;
80983;SDS011;73733;53.046;8.724;2024-01-11T01:01:32;15.13;;;8.37;;
80983;SDS011;73733;53.046;8.724;2024-01-11T01:03:58;12.47;;;6.87;;
80983;SDS011;73733;53.046;8.724;2024-01-11T01:06:23;11.27;;;6.30;;
80983;SDS011;73733;53.046;8.724;2024-01-11T01:08:49;13.05;;;6.65;;
80983;SDS011;73733;53.046;8.724;2024-01-11T01:11:14;14.50;;;7.27;;
80983;SDS011;73733;53.046;8.724;2024-01-11T01:13:39;14.50;;;7.87;;
80983;SDS011;73733;53.046;8.724;2024-01-11T01:16:05;13.30;;;7.37;;
80983;SDS011;73733;53.046;8.724;2024-01-11T01:18:30;13.10;;;6.97;;
80983;SDS011;73733;53.046;8.724;2024-01-11T01:20:55;12.80;;;7.07;;
80983;SDS011;73733;53.046;8.724;2024-01-11T01:23:21;10.98;;;5.47;;
80983;SDS011;73733;53.046;8.724;2024-01-11T01:25:46;13.13;;;6.67;;
80983;SDS011;73733;53.046;8.724;2024-01-11T01:28:11;12.43;;;7.47;;
80983;SDS011;73733;53.046;8.724;2024-01-11T01:30:37;12.97;;;6.73;;
80983;SDS011;73733;53.046;8.724;2024-01-11T01:33:02;14.20;;;7.50;;
80983;SDS011;73733;53.046;8.724;2024-01-11T01:35:27;13.82;;;7.93;;
80983;SDS011;73733;53.046;8.724;2024-01-11T01:37:53;16.87;;;8.60;;
80983;SDS011;73733;53.046;8.724;2024-01-11T01:40:18;17.03;;;7.80;;
80983;SDS011;73733;53.046;8.724;2024-01-11T01:42:44;12.17;;;6.77;;
80983;SDS011;73733;53.046;8.724;2024-01-11T01:45:10;14.13;;;7.35;;
80983;SDS011;73733;53.046;8.724;2024-01-11T01:47:36;11.75;;;7.20;;
80983;SDS011;73733;53.046;8.724;2024-01-11T01:50:01;15.70;;;7.43;;
80983;SDS011;73733;53.046;8.724;2024-01-11T01:52:27;13.00;;;6.97;;
80983;SDS011;73733;53.046;8.724;2024-01-11T01:54:53;15.55;;;7.28;;
80983;SDS011;73733;53.046;8.724;2024-01-11T01:57:18;15.27;;;8.23;;
80983;SDS011;73733;53.046;8.724;2024-01-11T01:59:44;21.40;;;9.98;;
80983;SDS011;73733;53.046;8.724;2024-01-11T02:02:10;16.00;;;8.02;;
80983;SDS011;73733;53.046;8.724;2024-01-11T02:04:36;15.07;;;7.53;;
80983;SDS011;73733;53.046;8.724;2024-01-11T02:07:01;17.48;;;8.82;;
80983;SDS011;73733;53.046;8.724;2024-01-11T02:09:27;14.50;;;7.05;;
80983;SDS011;73733;53.046;8.724;2024-01-11T02:11:53;14.45;;;6.57;;
80983;SDS011;73733;53.046;8.724;2024-01-11T02:14:19;15.00;;;7.75;;
80983;SDS011;73733;53.046;8.724;2024-01-11T02:16:45;14.23;;;7.47;;
80983;SDS011;73733;53.046;8.724;2024-01-11T02:19:12;14.77;;;7.28;;
80983;SDS011;73733;53.046;8.724;2024-01-11T02:21:40;13.05;;;6.30;;
80983;SDS011;73733;53.046;8.724;2024-01-11T02:24:07;15.45;;;7.97;;
80983;SDS011;73733;53.046;8.724;2024-01-11T02:26:33;15.13;;;7.97;;
80983;SDS011;73733;53.046;8.724;2024-01-11T02:28:59;16.48;;;8.70;;
80983;SDS011;73733;53.046;8.724;2024-01-11T02:31:24;14.70;;;6.60;;
80983;SDS011;73733;53.046;8.724;2024-01-11T02:33:51;16.42;;;8.20;;
80983;SDS011;73733;53.046;8.724;2024-01-11T02:36:17;17.50;;;9.00;;
80983;SDS011;73733;53.046;8.724;2024-01-11T02:38:43;20.60;;;8.25;;
80983;SDS011;73733;53.046;8.724;2024-01-11T02:41:08;16.47;;;8.43;;
80983;SDS011;73733;53.046;8.724;2024-01-11T02:43:34;15.43;;;8.53;;
80983;SDS011;73733;53.046;8.724;2024-01-11T02:46:01;14.52;;;8.18;;
80983;SDS011;73733;53.046;8.724;2024-01-11T02:48:27;18.67;;;8.98;;
80983;SDS011;73733;53.046;8.724;2024-01-11T02:50:53;17.35;;;8.95;;
80983;SDS011;73733;53.046;8.724;2024-01-11T02:53:19;18.13;;;9.00;;
80983;SDS011;73733;53.046;8.724;2024-01-11T02:55:44;14.32;;;7.93;;
80983;SDS011;73733;53.046;8.724;2024-01-11T02:58:09;15.47;;;8.13;;
80983;SDS011;73733;53.046;8.724;2024-01-11T03:00:35;15.57;;;7.93;;
80983;SDS011;73733;53.046;8.724;2024-01-11T03:03:00;17.43;;;8.30;;
80983;SDS011;73733;53.046;8.724;2024-01-11T03:05:26;17.00;;;8.68;;
80983;SDS011;73733;53.046;8.724;2024-01-11T03:07:51;15.07;;;7.80;;
80983;SDS011;73733;53.046;8.724;2024-01-11T03:10:16;17.07;;;8.17;;
80983;SDS011;73733;53.046;8.724;2024-01-11T03:12:41;18.37;;;9.40;;
80983;SDS011;73733;53.046;8.724;2024-01-11T03:15:07;15.70;;;7.43;;
80983;SDS011;73733;53.046;8.724;2024-01-11T03:17:33;21.05;;;9.35;;
80983;SDS011;73733;53.046;8.724;2024-01-11T03:19:59;21.88;;;9.75;;
80983;SDS011;73733;53.046;8.724;2024-01-11T03:22:24;17.48;;;8.73;;
80983;SDS011;73733;53.046;8.724;2024-01-11T03:24:50;19.48;;;8.95;;
80983;SDS011;73733;53.046;8.724;2024-01-11T03:27:15;19.33;;;9.23;;
80983;SDS011;73733;53.046;8.724;2024-01-11T03:29:40;18.63;;;9.45;;
80983;SDS011;73733;53.046;8.724;2024-01-11T03:32:06;20.57;;;9.80;;
80983;SDS011;73733;53.046;8.724;2024-01-11T03:34:31;20.88;;;9.98;;
80983;SDS011;73733;53.046;8.724;2024-01-11T03:36:57;19.00;;;9.63;;
80983;SDS011;73733;53.046;8.724;2024-01-11T03:39:22;19.37;;;8.87;;
80983;SDS011;73733;53.046;8.724;2024-01-11T03:41:47;19.40;;;9.73;;
80983;SDS011;73733;53.046;8.724;2024-01-11T03:44:12;21.43;;;10.67;;
80983;SDS011;73733;53.046;8.724;2024-01-11T03:46:38;19.98;;;9.52;;
80983;SDS011;73733;53.046;8.724;2024-01-11T03:49:03;20.30;;;9.30;;
80983;SDS011;73733;53.046;8.724;2024-01-11T03:51:29;17.55;;;8.60;;
80983;SDS011;73733;53.046;8.724;2024-01-11T03:53:54;20.90;;;9.73;;
80983;SDS011;73733;53.046;8.724;2024-01-11T03:56:19;19.17;;;8.43;;
80983;SDS011;73733;53.046;8.724;2024-01-11T03:58:45;19.80;;;9.17;;
80983;SDS011;73733;53.046;8.724;2024-01-11T04:01:10;19.83;;;8.90;;
80983;SDS011;73733;53.046;8.724;2024-01-11T04:03:36;18.92;;;9.55;;
80983;SDS011;73733;53.046;8.724;2024-01-11T04:06:01;19.73;;;8.88;;
80983;SDS011;73733;53.046;8.724;2024-01-11T04:08:27;22.40;;;9.87;;
80983;SDS011;73733;53.046;8.724;2024-01-11T04:10:52;19.40;;;9.18;;
80983;SDS011;73733;53.046;8.724;2024-01-11T04:13:18;20.80;;;10.37;;
80983;SDS011;73733;53.046;8.724;2024-01-11T04:15:43;19.67;;;8.30;;
80983;SDS011;73733;53.046;8.724;2024-01-11T04:18:08;23.77;;;9.97;;
80983;SDS011;73733;53.046;8.724;2024-01-11T04:20:34;19.07;;;8.57;;
80983;SDS011;73733;53.046;8.724;2024-01-11T04:22:59;17.73;;;8.00;;
80983;SDS011;73733;53.046;8.724;2024-01-11T04:25:24;21.13;;;10.60;;
80983;SDS011;73733;53.046;8.724;2024-01-11T04:27:49;14.77;;;8.00;;
80983;SDS011;73733;53.046;8.724;2024-01-11T04:30:15;13.87;;;7.50;;
80983;SDS011;73733;53.046;8.724;2024-01-11T04:32:40;15.57;;;8.07;;
80983;SDS011;73733;53.046;8.724;2024-01-11T04:35:05;14.77;;;7.37;;
80983;SDS011;73733;53.046;8.724;2024-01-11T04:37:31;17.58;;;9.45;;
80983;SDS011;73733;53.046;8.724;2024-01-11T04:39:56;16.85;;;8.02;;
80983;SDS011;73733;53.046;8.724;2024-01-11T04:42:25;19.95;;;9.18;;
80983;SDS011;73733;53.046;8.724;2024-01-11T04:44:51;17.50;;;9.30;;
80983;SDS011;73733;53.046;8.724;2024-01-11T04:47:17;15.73;;;7.55;;
80983;SDS011;73733;53.046;8.724;2024-01-11T04:49:42;17.10;;;9.00;;
80983;SDS011;73733;53.046;8.724;2024-01-11T04:52:07;14.83;;;7.73;;
80983;SDS011;73733;53.046;8.724;2024-01-11T04:54:33;15.38;;;8.40;;
80983;SDS011;73733;53.046;8.724;2024-01-11T04:56:58;16.40;;;9.07;;
80983;SDS011;73733;53.046;8.724;2024-01-11T04:59:24;16.60;;;8.80;;
80983;SDS011;73733;53.046;8.724;2024-01-11T05:01:49;16.50;;;7.70;;
80983;SDS011;73733;53.046;8.724;2024-01-11T05:04:14;17.07;;;9.13;;
80983;SDS011;73733;53.046;8.724;2024-01-11T05:06:39;17.40;;;8.70;;
80983;SDS011;73733;53.046;8.724;2024-01-11T05:09:05;15.90;;;7.40;;
80983;SDS011;73733;53.046;8.724;2024-01-11T05:11:30;15.13;;;8.73;;
80983;SDS011;73733;53.046;8.724;2024-01-11T05:13:55;16.80;;;8.07;;
80983;SDS011;73733;53.046;8.724;2024-01-11T05:16:21;25.40;;;10.97;;
80983;SDS011;73733;53.046;8.724;2024-01-11T05:18:48;17.23;;;8.10;;
80983;SDS011;73733;53.046;8.724;2024-01-11T05:21:13;18.33;;;9.27;;
80983;SDS011;73733;53.046;8.724;2024-01-11T05:23:40;18.35;;;9.60;;
80983;SDS011;73733;53.046;8.724;2024-01-11T05:26:06;15.90;;;7.75;;
80983;SDS011;73733;53.046;8.724;2024-01-11T05:28:31;17.15;;;9.13;;
80983;SDS011;73733;53.046;8.724;2024-01-11T05:30:57;17.93;;;8.97;;
80983;SDS011;73733;53.046;8.724;2024-01-11T05:33:22;17.00;;;9.03;;
80983;SDS011;73733;53.046;8.724;2024-01-11T05:35:47;16.43;;;7.90;;
80983;SDS011;73733;53.046;8.724;2024-01-11T05:38:12;17.47;;;8.33;;
80983;SDS011;73733;53.046;8.724;2024-01-11T05:40:38;19.27;;;9.90;;
80983;SDS011;73733;53.046;8.724;2024-01-11T05:43:03;21.03;;;9.53;;
80983;SDS011;73733;53.046;8.724;2024-01-11T05:45:28;18.03;;;8.63;;
80983;SDS011;73733;53.046;8.724;2024-01-11T05:47:54;23.47;;;10.73;;
80983;SDS011;73733;53.046;8.724;2024-01-11T05:50:19;23.33;;;10.07;;
80983;SDS011;73733;53.046;8.724;2024-01-11T05:52:44;17.73;;;8.63;;
80983;SDS011;73733;53.046;8.724;2024-01-11T05:55:10;19.03;;;8.97;;
80983;SDS011;73733;53.046;8.724;2024-01-11T05:57:35;18.33;;;9.40;;
80983;SDS011;73733;53.046;8.724;2024-01-11T06:00:00;19.73;;;9.50;;
80983;SDS011;73733;53.046;8.724;2024-01-11T06:02:25;21.97;;;8.67;;
80983;SDS011;73733;53.046;8.724;2024-01-11T06:04:51;21.25;;;9.38;;
80983;SDS011;73733;53.046;8.724;2024-01-11T06:07:16;16.70;;;8.93;;
80983;SDS011;73733;53.046;8.724;2024-01-11T06:09:41;15.07;;;6.67;;
80983;SDS011;73733;53.046;8.724;2024-01-11T06:12:07;20.00;;;8.93;;
80983;SDS011;73733;53.046;8.724;2024-01-11T06:14:32;22.98;;;9.55;;
80983;SDS011;73733;53.046;8.724;2024-01-11T06:16:57;20.80;;;10.07;;
80983;SDS011;73733;53.046;8.724;2024-01-11T06:19:23;22.33;;;9.27;;
80983;SDS011;73733;53.046;8.724;2024-01-11T06:21:48;18.20;;;9.63;;
80983;SDS011;73733;53.046;8.724;2024-01-11T06:24:13;19.77;;;10.33;;
80983;SDS011;73733;53.046;8.724;2024-01-11T06:26:39;16.47;;;8.57;;
80983;SDS011;73733;53.046;8.724;2024-01-11T06:29:04;17.27;;;8.47;;
80983;SDS011;73733;53.046;8.724;2024-01-11T06:31:29;17.37;;;9.50;;
80983;SDS011;73733;53.046;8.724;2024-01-11T06:33:55;21.47;;;9.60;;
80983;SDS011;73733;53.046;8.724;2024-01-11T06:36:21;16.53;;;7.53;;
80983;SDS011;73733;53.046;8.724;2024-01-11T06:38:46;16.92;;;8.50;;
80983;SDS011;73733;53.046;8.724;2024-01-11T06:41:11;20.97;;;9.37;;
80983;SDS011;73733;53.046;8.724;2024-01-11T06:43:37;20.73;;;8.70;;
80983;SDS011;73733;53.046;8.724;2024-01-11T06:46:03;17.67;;;8.50;;
80983;SDS011;73733;53.046;8.724;2024-01-11T06:48:29;20.33;;;9.80;;
80983;SDS011;73733;53.046;8.724;2024-01-11T06:50:55;18.27;;;9.65;;
80983;SDS011;73733;53.046;8.724;2024-01-11T06:53:21;21.87;;;10.90;;
80983;SDS011;73733;53.046;8.724;2024-01-11T06:55:46;20.40;;;9.80;;
80983;SDS011;73733;53.046;8.724;2024-01-11T06:58:12;17.95;;;8.85;;
80983;SDS011;73733;53.046;8.724;2024-01-11T07:00:38;22.02;;;9.90;;
80983;SDS011;73733;53.046;8.724;2024-01-11T07:03:07;23.30;;;10.27;;
80983;SDS011;73733;53.046;8.724;2024-01-11T07:05:33;18.27;;;8.68;;
80983;SDS011;73733;53.046;8.724;2024-01-11T07:07:58;20.20;;;8.53;;
80983;SDS011;73733;53.046;8.724;2024-01-11T07:10:24;20.70;;;9.00;;
80983;SDS011;73733;53.046;8.724;2024-01-11T07:12:49;21.27;;;10.10;;
80983;SDS011;73733;53.046;8.724;2024-01-11T07:15:14;21.03;;;10.13;;
80983;SDS011;73733;53.046;8.724;2024-01-11T07:17:40;18.48;;;8.48;;
80983;SDS011;73733;53.046;8.724;2024-01-11T07:20:05;18.33;;;8.40;;
80983;SDS011;73733;53.046;8.724;2024-01-11T07:22:32;18.73;;;8.48;;
80983;SDS011;73733;53.046;8.724;2024-01-11T07:24:58;21.90;;;8.13;;
80983;SDS011;73733;53.046;8.724;2024-01-11T07:27:23;20.43;;;8.13;;
80983;SDS011;73733;53.046;8.724;2024-01-11T07:29:48;20.48;;;8.63;;
80983;SDS011;73733;53.046;8.724;2024-01-11T07:32:14;25.87;;;9.40;;
80983;SDS011;73733;53.046;8.724;2024-01-11T07:34:39;23.70;;;10.05;;
80983;SDS011;73733;53.046;8.724;2024-01-11T07:37:04;21.13;;;8.80;;
80983;SDS011;73733;53.046;8.724;2024-01-11T07:39:29;18.33;;;8.23;;
80983;SDS011;73733;53.046;8.724;2024-01-11T07:41:56;18.80;;;9.07;;
80983;SDS011;73733;53.046;8.724;2024-01-11T07:44:21;19.02;;;8.98;;
80983;SDS011;73733;53.046;8.724;2024-01-11T07:46:47;20.57;;;9.67;;
80983;SDS011;73733;53.046;8.724;2024-01-11T07:49:12;20.97;;;10.53;;
80983;SDS011;73733;53.046;8.724;2024-01-11T07:51:37;22.53;;;8.80;;
80983;SDS011;73733;53.046;8.724;2024-01-11T07:54:04;20.05;;;8.52;;
80983;SDS011;73733;53.046;8.724;2024-01-11T07:56:30;24.48;;;9.80;;
80983;SDS011;73733;53.046;8.724;2024-01-11T07:58:55;21.10;;;9.60;;
80983;SDS011;73733;53.046;8.724;2024-01-11T08:01:20;21.57;;;9.70;;
80983;SDS011;73733;53.046;8.724;2024-01-11T08:03:45;19.40;;;8.00;;
80983;SDS011;73733;53.046;8.724;2024-01-11T08:06:12;22.95;;;9.65;;
80983;SDS011;73733;53.046;8.724;2024-01-11T08:08:37;17.90;;;8.07;;
80983;SDS011;73733;53.046;8.724;2024-01-11T08:11:04;20.25;;;8.90;;
80983;SDS011;73733;53.046;8.724;2024-01-11T08:13:30;20.50;;;9.15;;
80983;SDS011;73733;53.046;8.724;2024-01-11T08:15:56;24.95;;;10.52;;
80983;SDS011;73733;53.046;8.724;2024-01-11T08:18:22;23.83;;;11.05;;
80983;SDS011;73733;53.046;8.724;2024-01-11T08:20:47;20.40;;;8.93;;
80983;SDS011;73733;53.046;8.724;2024-01-11T08:23:13;22.77;;;10.98;;
80983;SDS011;73733;53.046;8.724;2024-01-11T08:25:38;24.97;;;10.63;;
80983;SDS011;73733;53.046;8.724;2024-01-11T08:28:04;22.93;;;9.87;;
80983;SDS011;73733;53.046;8.724;2024-01-11T08:30:29;21.15;;;9.65;;
80983;SDS011;73733;53.046;8.724;2024-01-11T08:32:54;20.97;;;9.70;;
80983;SDS011;73733;53.046;8.724;2024-01-11T08:35:20;25.30;;;9.18;;
80983;SDS011;73733;53.046;8.724;2024-01-11T08:37:46;20.40;;;9.80;;
80983;SDS011;73733;53.046;8.724;2024-01-11T08:40:11;20.97;;;10.03;;
80983;SDS011;73733;53.046;8.724;2024-01-11T08:42:37;21.90;;;9.50;;
80983;SDS011;73733;53.046;8.724;2024-01-11T08:45:04;22.95;;;9.80;;
80983;SDS011;73733;53.046;8.724;2024-01-11T08:47:32;19.23;;;8.90;;
80983;SDS011;73733;53.046;8.724;2024-01-11T08:49:58;22.33;;;11.23;;
80983;SDS011;73733;53.046;8.724;2024-01-11T08:52:23;25.53;;;10.23;;
80983;SDS011;73733;53.046;8.724;2024-01-11T08:54:49;27.60;;;11.73;;
80983;SDS011;73733;53.046;8.724;2024-01-11T08:57:14;21.13;;;9.70;;
80983;SDS011;73733;53.046;8.724;2024-01-11T08:59:40;24.20;;;11.13;;
80983;SDS011;73733;53.046;8.724;2024-01-11T09:02:06;24.58;;;10.55;;
80983;SDS011;73733;53.046;8.724;2024-01-11T09:04:31;24.33;;;11.53;;
80983;SDS011;73733;53.046;8.724;2024-01-11T09:06:56;22.83;;;9.97;;
80983;SDS011;73733;53.046;8.724;2024-01-11T09:09:22;24.27;;;9.97;;
80983;SDS011;73733;53.046;8.724;2024-01-11T09:11:47;23.57;;;10.47;;
80983;SDS011;73733;53.046;8.724;2024-01-11T09:14:12;22.43;;;9.17;;
80983;SDS011;73733;53.046;8.724;2024-01-11T09:16:38;21.70;;;9.55;;
80983;SDS011;73733;53.046;8.724;2024-01-11T09:19:04;20.17;;;8.82;;
80983;SDS011;73733;53.046;8.724;2024-01-11T09:21:30;18.77;;;9.80;;
80983;SDS011;73733;53.046;8.724;2024-01-11T09:23:55;21.20;;;8.67;;
80983;SDS011;73733;53.046;8.724;2024-01-11T09:26:20;19.47;;;9.93;;
80983;SDS011;73733;53.046;8.724;2024-01-11T09:28:47;24.55;;;9.82;;
80983;SDS011;73733;53.046;8.724;2024-01-11T09:31:12;27.98;;;10.18;;
80983;SDS011;73733;53.046;8.724;2024-01-11T09:33:38;22.87;;;9.97;;
80983;SDS011;73733;53.046;8.724;2024-01-11T09:36:03;23.40;;;10.60;;
80983;SDS011;73733;53.046;8.724;2024-01-11T09:38:29;22.55;;;10.68;;
80983;SDS011;73733;53.046;8.724;2024-01-11T09:40:59;19.23;;;8.93;;
80983;SDS011;73733;53.046;8.724;2024-01-11T09:43:35;22.15;;;9.55;;
80983;SDS011;73733;53.046;8.724;2024-01-11T09:46:04;23.67;;;9.77;;
80983;SDS011;73733;53.046;8.724;2024-01-11T09:48:31;24.13;;;9.70;;
80983;SDS011;73733;53.046;8.724;2024-01-11T09:50:57;19.88;;;8.13;;
80983;SDS011;73733;53.046;8.724;2024-01-11T09:53:23;19.92;;;9.23;;
80983;SDS011;73733;53.046;8.724;2024-01-11T09:55:50;23.85;;;9.95;;
80983;SDS011;73733;53.046;8.724;2024-01-11T09:58:16;22.90;;;9.20;;
80983;SDS011;73733;53.046;8.724;2024-01-11T10:00:41;23.60;;;10.07;;
80983;SDS011;73733;53.046;8.724;2024-01-11T10:03:07;23.95;;;9.13;;
80983;SDS011;73733;53.046;8.724;2024-01-11T10:05:33;24.42;;;10.43;;
80983;SDS011;73733;53.046;8.724;2024-01-11T10:07:59;23.63;;;11.00;;
80983;SDS011;73733;53.046;8.724;2024-01-11T10:10:25;19.97;;;9.13;;
80983;SDS011;73733;53.046;8.724;2024-01-11T10:12:50;22.60;;;10.77;;
80983;SDS011;73733;53.046;8.724;2024-01-11T10:15:16;21.75;;;9.85;;
80983;SDS011;73733;53.046;8.724;2024-01-11T10:17:42;20.13;;;8.88;;
80983;SDS011;73733;53.046;8.724;2024-01-11T10:20:11;23.15;;;9.13;;
80983;SDS011;73733;53.046;8.724;2024-01-11T10:22:39;20.30;;;8.98;;
80983;SDS011;73733;53.046;8.724;2024-01-11T10:25:08;18.90;;;8.85;;
80983;SDS011;73733;53.046;8.724;2024-01-11T10:27:35;20.20;;;9.32;;
80983;SDS011;73733;53.046;8.724;2024-01-11T10:30:01;20.10;;;7.87;;
80983;SDS011;73733;53.046;8.724;2024-01-11T10:32:28;27.52;;;11.02;;
80983;SDS011;73733;53.046;8.724;2024-01-11T10:34:53;19.40;;;8.63;;
80983;SDS011;73733;53.046;8.724;2024-01-11T10:37:18;20.23;;;10.10;;
80983;SDS011;73733;53.046;8.724;2024-01-11T10:39:45;20.75;;;9.32;;
80983;SDS011;73733;53.046;8.724;2024-01-11T10:42:11;17.60;;;7.60;;
80983;SDS011;73733;53.046;8.724;2024-01-11T10:44:38;24.73;;;9.77;;
80983;SDS011;73733;53.046;8.724;2024-01-11T10:47:07;20.75;;;8.73;;
80983;SDS011;73733;53.046;8.724;2024-01-11T10:49:34;19.85;;;8.50;;
80983;SDS011;73733;53.046;8.724;2024-01-11T10:52:04;18.45;;;8.80;;
80983;SDS011;73733;53.046;8.724;2024-01-11T10:54:31;20.00;;;7.88;;
80983;SDS011;73733;53.046;8.724;2024-01-11T10:56:58;20.70;;;7.65;;
80983;SDS011;73733;53.046;8.724;2024-01-11T10:59:25;22.00;;;8.52;;
80983;SDS011;73733;53.046;8.724;2024-01-11T11:01:54;20.52;;;7.60;;
80983;SDS011;73733;53.046;8.724;2024-01-11T11:04:22;21.27;;;8.98;;
80983;SDS011;73733;53.046;8.724;2024-01-11T11:06:49;19.08;;;7.28;;
80983;SDS011;73733;53.046;8.724;2024-01-11T11:09:15;22.13;;;8.45;;
80983;SDS011;73733;53.046;8.724;2024-01-11T11:11:42;21.85;;;9.50;;
80983;SDS011;73733;53.046;8.724;2024-01-11T11:14:07;22.70;;;9.83;;
80983;SDS011;73733;53.046;8.724;2024-01-11T11:16:35;21.40;;;9.25;;
80983;SDS011;73733;53.046;8.724;2024-01-11T11:19:00;21.48;;;7.93;;
80983;SDS011;73733;53.046;8.724;2024-01-11T11:21:25;21.50;;;8.47;;
80983;SDS011;73733;53.046;8.724;2024-01-11T11:23:51;21.13;;;9.25;;
80983;SDS011;73733;53.046;8.724;2024-01-11T11:26:17;18.47;;;8.50;;
80983;SDS011;73733;53.046;8.724;2024-01-11T11:28:42;20.37;;;8.43;;
80983;SDS011;73733;53.046;8.724;2024-01-11T11:31:08;17.15;;;8.07;;
80983;SDS011;73733;53.046;8.724;2024-01-11T11:33:35;23.05;;;8.98;;
80983;SDS011;73733;53.046;8.724;2024-01-11T11:36:01;17.53;;;9.23;;
80983;SDS011;73733;53.046;8.724;2024-01-11T11:38:29;19.17;;;8.35;;
80983;SDS011;73733;53.046;8.724;2024-01-11T11:40:58;21.75;;;9.00;;
80983;SDS011;73733;53.046;8.724;2024-01-11T11:43:26;21.40;;;8.65;;
80983;SDS011;73733;53.046;8.724;2024-01-11T11:45:51;19.23;;;8.15;;
80983;SDS011;73733;53.046;8.724;2024-01-11T11:53:46;20.20;;;8.27;;
80983;SDS011;73733;53.046;8.724;2024-01-11T11:56:12;16.45;;;8.10;;
80983;SDS011;73733;53.046;8.724;2024-01-11T11:58:40;18.50;;;7.85;;
80983;SDS011;73733;53.046;8.724;2024-01-11T12:01:05;18.50;;;7.72;;
80983;SDS011;73733;53.046;8.724;2024-01-11T12:03:34;16.63;;;7.00;;
80983;SDS011;73733;53.046;8.724;2024-01-11T12:06:07;18.27;;;8.30;;
80983;SDS011;73733;53.046;8.724;2024-01-11T12:08:35;20.30;;;8.15;;
80983;SDS011;73733;53.046;8.724;2024-01-11T12:11:01;17.98;;;7.45;;
80983;SDS011;73733;53.046;8.724;2024-01-11T12:13:26;20.10;;;8.40;;
80983;SDS011;73733;53.046;8.724;2024-01-11T12:15:52;21.95;;;8.45;;
80983;SDS011;73733;53.046;8.724;2024-01-11T12:18:17;17.50;;;7.78;;
80983;SDS011;73733;53.046;8.724;2024-01-11T12:20:42;22.17;;;8.27;;
80983;SDS011;73733;53.046;8.724;2024-01-11T12:23:08;18.20;;;7.43;;
80983;SDS011;73733;53.046;8.724;2024-01-11T12:25:33;18.10;;;6.82;;
80983;SDS011;73733;53.046;8.724;2024-01-11T12:27:59;16.60;;;7.65;;
80983;SDS011;73733;53.046;8.724;2024-01-11T12:30:25;19.55;;;9.48;;
80983;SDS011;73733;53.046;8.724;2024-01-11T12:32:51;15.32;;;6.55;;
80983;SDS011;73733;53.046;8.724;2024-01-11T12:35:17;17.88;;;7.03;;
80983;SDS011;73733;53.046;8.724;2024-01-11T12:37:55;16.35;;;8.00;;
80983;SDS011;73733;53.046;8.724;2024-01-11T12:40:33;16.83;;;6.75;;
80983;SDS011;73733;53.046;8.724;2024-01-11T12:43:00;18.80;;;7.38;;
80983;SDS011;73733;53.046;8.724;2024-01-11T12:45:25;15.00;;;6.50;;
80983;SDS011;73733;53.046;8.724;2024-01-11T12:47:51;17.13;;;6.60;;
80983;SDS011;73733;53.046;8.724;2024-01-11T12:50:17;17.02;;;7.18;;
80983;SDS011;73733;53.046;8.724;2024-01-11T12:52:42;16.38;;;6.72;;
80983;SDS011;73733;53.046;8.724;2024-01-11T12:55:08;15.98;;;7.35;;
80983;SDS011;73733;53.046;8.724;2024-01-11T12:57:43;16.33;;;6.45;;
80983;SDS011;73733;53.046;8.724;2024-01-11T13:00:09;14.35;;;6.13;;
80983;SDS011;73733;53.046;8.724;2024-01-11T13:02:38;14.68;;;7.18;;
80983;SDS011;73733;53.046;8.724;2024-01-11T13:05:04;18.80;;;8.38;;
80983;SDS011;73733;53.046;8.724;2024-01-11T13:07:33;12.98;;;6.50;;
80983;SDS011;73733;53.046;8.724;2024-01-11T13:10:01;14.27;;;6.05;;
80983;SDS011;73733;53.046;8.724;2024-01-11T13:12:28;12.27;;;6.15;;
80983;SDS011;73733;53.046;8.724;2024-01-11T13:14:54;15.53;;;7.27;;
80983;SDS011;73733;53.046;8.724;2024-01-11T13:17:20;13.45;;;6.10;;
80983;SDS011;73733;53.046;8.724;2024-01-11T13:19:45;13.20;;;6.03;;
80983;SDS011;73733;53.046;8.724;2024-01-11T13:22:11;15.60;;;6.83;;
80983;SDS011;73733;53.046;8.724;2024-01-11T13:24:36;15.68;;;6.63;;
80983;SDS011;73733;53.046;8.724;2024-01-11T13:27:01;12.43;;;6.07;;
80983;SDS011;73733;53.046;8.724;2024-01-11T13:29:27;14.48;;;7.47;;
80983;SDS011;73733;53.046;8.724;2024-01-11T13:31:52;13.73;;;6.07;;
80983;SDS011;73733;53.046;8.724;2024-01-11T13:34:17;14.50;;;6.00;;
80983;SDS011;73733;53.046;8.724;2024-01-11T13:36:43;13.75;;;6.07;;
80983;SDS011;73733;53.046;8.724;2024-01-11T13:39:09;14.03;;;5.83;;
80983;SDS011;73733;53.046;8.724;2024-01-11T13:41:34;12.23;;;6.47;;
80983;SDS011;73733;53.046;8.724;2024-01-11T13:43:59;14.67;;;7.27;;
80983;SDS011;73733;53.046;8.724;2024-01-11T13:46:25;11.70;;;5.10;;
80983;SDS011;73733;53.046;8.724;2024-01-11T13:48:50;14.75;;;6.07;;
80983;SDS011;73733;53.046;8.724;2024-01-11T13:51:15;11.93;;;6.00;;
80983;SDS011;73733;53.046;8.724;2024-01-11T13:53:41;12.37;;;5.60;;
80983;SDS011;73733;53.046;8.724;2024-01-11T13:56:06;12.02;;;5.30;;
80983;SDS011;73733;53.046;8.724;2024-01-11T13:58:31;12.32;;;6.20;;
80983;SDS011;73733;53.046;8.724;2024-01-11T14:00:57;13.17;;;5.67;;
80983;SDS011;73733;53.046;8.724;2024-01-11T14:03:22;13.43;;;5.80;;
80983;SDS011;73733;53.046;8.724;2024-01-11T14:05:48;11.50;;;5.97;;
80983;SDS011;73733;53.046;8.724;2024-01-11T14:08:14;13.97;;;6.60;;
80983;SDS011;73733;53.046;8.724;2024-01-11T14:10:39;12.33;;;5.70;;
80983;SDS011;73733;53.046;8.724;2024-01-11T14:13:04;9.87;;;5.17;;
80983;SDS011;73733;53.046;8.724;2024-01-11T14:15:29;13.60;;;5.73;;
80983;SDS011;73733;53.046;8.724;2024-01-11T14:17:55;14.52;;;6.38;;
80983;SDS011;73733;53.046;8.724;2024-01-11T14:20:21;9.93;;;5.10;;
80983;SDS011;73733;53.046;8.724;2024-01-11T14:22:46;10.10;;;5.17;;
80983;SDS011;73733;53.046;8.724;2024-01-11T14:25:14;11.07;;;5.57;;
80983;SDS011;73733;53.046;8.724;2024-01-11T14:27:43;11.50;;;5.40;;
80983;SDS011;73733;53.046;8.724;2024-01-11T14:30:09;10.07;;;5.43;;